createdAt,value
2023-11-12T00:00:37.862Z,9.30
2023-11-12T00:03:05.227Z,9.30
2023-11-12T00:05:32.125Z,9.20
2023-11-12T00:07:58.895Z,9.20
2023-11-12T00:10:26.972Z,9.20
2023-11-12T00:12:54.069Z,9.20
2023-11-12T00:15:21.016Z,9.20
2023-11-12T00:17:47.934Z,9.10
2023-11-12T00:20:14.864Z,9.10
2023-11-12T00:22:42.325Z,9.10
2023-11-12T00:25:11.301Z,9.10
2023-11-12T00:27:38.260Z,9.10
2023-11-12T00:30:05.471Z,9.00
2023-11-12T00:32:33.813Z,9.00
2023-11-12T00:35:00.784Z,8.90
2023-11-12T00:37:27.579Z,8.90
2023-11-12T00:39:54.365Z,8.90
2023-11-12T00:42:21.661Z,8.90
2023-11-12T00:44:48.531Z,8.90
2023-11-12T00:47:15.445Z,8.90
2023-11-12T00:49:42.234Z,8.90
2023-11-12T00:52:09.808Z,8.90
2023-11-12T00:54:37.541Z,8.90
2023-11-12T00:57:04.496Z,8.80
2023-11-12T00:59:31.788Z,8.80
2023-11-12T01:01:58.621Z,8.80
2023-11-12T01:04:28.588Z,8.70
2023-11-12T01:06:55.341Z,8.70
2023-11-12T01:09:22.180Z,8.70
2023-11-12T01:11:49.308Z,8.70
2023-11-12T01:14:16.279Z,8.70
2023-11-12T01:16:43.109Z,8.70
2023-11-12T01:19:09.940Z,8.60
2023-11-12T01:21:36.764Z,8.60
2023-11-12T01:24:03.786Z,8.70
2023-11-12T01:26:30.837Z,8.70
2023-11-12T01:28:57.585Z,8.60
2023-11-12T01:31:24.615Z,8.70
2023-11-12T01:33:53.142Z,8.70
2023-11-12T01:36:21.090Z,8.60
2023-11-12T01:38:47.869Z,8.60
2023-11-12T01:41:14.789Z,8.50
2023-11-12T01:43:42.853Z,8.60
2023-11-12T01:46:09.984Z,8.50
2023-11-12T01:48:37.130Z,8.50
2023-11-12T01:51:05.591Z,8.60
2023-11-12T01:53:35.561Z,8.50
2023-11-12T01:56:04.592Z,8.60
2023-11-12T01:58:32.216Z,8.60
2023-11-12T02:00:59.969Z,8.70
2023-11-12T02:03:28.110Z,8.70
2023-11-12T02:05:54.970Z,8.80
2023-11-12T02:08:23.130Z,8.80
2023-11-12T02:10:54.295Z,8.90
2023-11-12T02:13:22.924Z,8.90
2023-11-12T02:15:51.509Z,9.00
2023-11-12T02:18:18.420Z,9.00
2023-11-12T02:20:46.808Z,9.00
2023-11-12T02:23:16.308Z,9.10
2023-11-12T02:25:44.770Z,9.10
2023-11-12T02:28:16.991Z,9.10
2023-11-12T02:30:43.987Z,9.10
2023-11-12T02:33:11.112Z,9.10
2023-11-12T02:35:43.772Z,9.10
2023-11-12T02:38:14.259Z,9.20
2023-11-12T02:40:41.151Z,9.20
2023-11-12T02:43:08.012Z,9.20
2023-11-12T02:45:34.916Z,9.20
2023-11-12T02:48:02.805Z,9.20
2023-11-12T02:50:33.698Z,9.20
2023-11-12T02:53:02.045Z,9.20
2023-11-12T02:55:30.176Z,9.20
2023-11-12T02:57:57.168Z,9.30
2023-11-12T03:00:28.645Z,9.20
2023-11-12T03:03:01.720Z,9.20
2023-11-12T03:05:30.333Z,9.20
2023-11-12T03:07:59.332Z,9.30
2023-11-12T03:10:26.357Z,9.20
2023-11-12T03:12:53.683Z,9.30
2023-11-12T03:15:20.519Z,9.30
2023-11-12T03:17:47.378Z,9.30
2023-11-12T03:20:15.521Z,9.30
2023-11-12T03:22:42.351Z,9.30
2023-11-12T03:25:11.220Z,9.30
2023-11-12T03:27:38.389Z,9.30
2023-11-12T03:30:06.139Z,9.30
2023-11-12T03:32:32.988Z,9.30
2023-11-12T03:35:01.928Z,9.20
2023-11-12T03:37:29.014Z,9.20
2023-11-12T03:39:56.384Z,9.20
2023-11-12T03:42:23.215Z,9.20
2023-11-12T03:44:53.074Z,9.20
2023-11-12T03:47:20.691Z,9.20
2023-11-12T03:49:47.550Z,9.20
2023-11-12T03:52:14.380Z,9.20
2023-11-12T03:54:41.455Z,9.20
2023-11-12T03:57:08.724Z,9.20
2023-11-12T03:59:37.203Z,9.20
2023-11-12T04:02:05.599Z,9.10
2023-11-12T04:04:33.134Z,9.10
2023-11-12T04:07:00.110Z,9.10
2023-11-12T04:09:26.886Z,9.10
2023-11-12T04:11:53.907Z,9.10
2023-11-12T04:14:21.564Z,9.10
2023-11-12T04:16:48.442Z,9.10
2023-11-12T04:19:15.280Z,9.10
2023-11-12T04:21:42.059Z,9.10
2023-11-12T04:24:09.280Z,9.10
2023-11-12T04:26:36.189Z,9.10
2023-11-12T04:29:07.932Z,9.10
2023-11-12T04:31:35.576Z,9.10
2023-11-12T04:34:02.682Z,9.00
2023-11-12T04:36:29.990Z,9.00
2023-11-12T04:39:00.030Z,9.00
2023-11-12T04:41:28.364Z,9.00
2023-11-12T04:43:55.648Z,9.00
2023-11-12T04:46:22.907Z,9.10
2023-11-12T04:48:50.276Z,9.10
2023-11-12T04:51:21.147Z,9.10
2023-11-12T04:53:49.318Z,9.10
2023-11-12T04:56:16.217Z,9.10
2023-11-12T04:58:43.053Z,9.00
2023-11-12T05:01:09.833Z,9.10
2023-11-12T05:03:36.777Z,9.10
2023-11-12T05:06:05.163Z,9.10
2023-11-12T05:08:32.187Z,9.00
2023-11-12T05:10:58.993Z,9.10
2023-11-12T05:13:26.753Z,9.10
2023-11-12T05:15:53.924Z,9.10
2023-11-12T05:18:20.752Z,9.10
2023-11-12T05:20:48.660Z,9.10
2023-11-12T05:23:15.591Z,9.10
2023-11-12T05:25:42.452Z,9.10
2023-11-12T05:28:09.292Z,9.10
2023-11-12T05:30:36.287Z,9.10
2023-11-12T05:33:03.638Z,9.10
2023-11-12T05:35:30.553Z,9.10
2023-11-12T05:37:57.527Z,9.20
2023-11-12T05:40:24.458Z,9.20
2023-11-12T05:42:51.334Z,9.20
2023-11-12T05:45:19.316Z,9.20
2023-11-12T05:47:46.407Z,9.20
2023-11-12T05:50:13.996Z,9.20
2023-11-12T05:52:40.879Z,9.20
2023-11-12T05:55:07.845Z,9.30
2023-11-12T05:57:34.704Z,9.30
2023-11-12T06:00:01.585Z,9.20
2023-11-12T06:02:28.349Z,9.30
2023-11-12T06:04:55.190Z,9.30
2023-11-12T06:07:21.960Z,9.30
2023-11-12T06:09:48.780Z,9.20
2023-11-12T06:12:15.617Z,9.20
2023-11-12T06:14:43.452Z,9.20
2023-11-12T06:17:11.165Z,9.20
2023-11-12T06:19:37.957Z,9.20
2023-11-12T06:22:04.901Z,9.30
2023-11-12T06:24:31.769Z,9.20
2023-11-12T06:26:58.635Z,9.20
2023-11-12T06:29:25.370Z,9.20
2023-11-12T06:31:52.409Z,9.20
2023-11-12T06:34:20.102Z,9.20
2023-11-12T06:36:47.100Z,9.20
2023-11-12T06:39:14.690Z,9.10
2023-11-12T06:41:42.725Z,9.10
2023-11-12T06:44:13.282Z,9.10
2023-11-12T06:46:47.047Z,9.00
2023-11-12T06:49:14.377Z,9.00
2023-11-12T06:51:41.228Z,9.00
2023-11-12T06:54:09.570Z,9.00
2023-11-12T06:56:36.513Z,9.00
2023-11-12T06:59:03.872Z,9.00
2023-11-12T07:01:31.092Z,8.90
2023-11-12T07:03:58.188Z,8.90
2023-11-12T07:06:25.023Z,8.90
2023-11-12T07:08:51.828Z,8.80
2023-11-12T07:11:18.664Z,8.80
2023-11-12T07:13:45.415Z,8.80
2023-11-12T07:16:21.594Z,8.80
2023-11-12T07:18:54.042Z,8.80
2023-11-12T07:21:32.376Z,8.80
2023-11-12T07:24:00.340Z,8.80
2023-11-12T07:26:28.228Z,8.90
2023-11-12T07:28:55.521Z,8.90
2023-11-12T07:31:25.350Z,8.90
2023-11-12T07:33:52.873Z,9.00
2023-11-12T07:36:21.977Z,9.00
2023-11-12T07:38:48.932Z,9.00
2023-11-12T07:41:15.712Z,9.00
2023-11-12T07:43:42.716Z,9.10
2023-11-12T07:46:09.704Z,9.10
2023-11-12T07:48:36.989Z,9.10
2023-11-12T07:51:04.019Z,9.10
2023-11-12T07:53:30.887Z,9.20
2023-11-12T07:55:57.737Z,9.20
2023-11-12T07:58:24.582Z,9.30
2023-11-12T08:00:51.421Z,9.30
2023-11-12T08:03:18.246Z,9.40
2023-11-12T08:05:46.986Z,9.40
2023-11-12T08:08:13.777Z,9.50
2023-11-12T08:10:40.656Z,9.50
2023-11-12T08:13:07.492Z,9.50
2023-11-12T08:15:34.545Z,9.50
2023-11-12T08:18:01.386Z,9.50
2023-11-12T08:20:28.185Z,9.50
2023-11-12T08:22:54.961Z,9.50
2023-11-12T08:25:21.751Z,9.50
2023-11-12T08:27:48.536Z,9.40
2023-11-12T08:30:15.470Z,9.40
2023-11-12T08:32:42.531Z,9.40
2023-11-12T08:35:09.336Z,9.50
2023-11-12T08:37:36.987Z,9.50
2023-11-12T08:40:04.254Z,9.50
2023-11-12T08:42:31.157Z,9.60
2023-11-12T08:44:58.215Z,9.60
2023-11-12T08:47:25.240Z,9.60
2023-11-12T08:49:52.338Z,9.60
2023-11-12T08:52:19.252Z,9.60
2023-11-12T08:54:49.073Z,9.60
2023-11-12T08:57:15.909Z,9.60
2023-11-12T08:59:42.697Z,9.60
2023-11-12T09:02:09.530Z,9.60
2023-11-12T09:04:36.406Z,9.70
2023-11-12T09:07:03.930Z,9.80
2023-11-12T09:09:30.924Z,9.80
2023-11-12T09:11:57.697Z,9.90
2023-11-12T09:14:24.553Z,10.00
2023-11-12T09:16:51.362Z,10.00
2023-11-12T09:19:18.317Z,10.10
2023-11-12T09:21:45.130Z,10.00
2023-11-12T09:24:12.079Z,10.00
2023-11-12T09:26:38.885Z,10.00
2023-11-12T09:29:06.083Z,10.00
2023-11-12T09:31:33.044Z,10.00
2023-11-12T09:33:59.896Z,10.00
2023-11-12T09:36:26.679Z,10.10
2023-11-12T09:38:53.483Z,10.10
2023-11-12T09:41:23.722Z,10.20
2023-11-12T09:43:54.929Z,10.40
2023-11-12T09:46:23.981Z,10.40
2023-11-12T09:48:53.577Z,10.50
2023-11-12T09:51:21.959Z,10.50
2023-11-12T09:53:51.875Z,10.60
2023-11-12T09:56:23.738Z,10.60
2023-11-12T09:58:50.728Z,10.60
2023-11-12T10:01:17.618Z,10.70
2023-11-12T10:03:50.016Z,10.70
2023-11-12T10:06:20.213Z,10.80
2023-11-12T10:08:47.044Z,10.80
2023-11-12T10:11:14.879Z,10.80
2023-11-12T10:13:41.879Z,10.80
2023-11-12T10:16:27.674Z,10.80
2023-11-12T10:18:55.241Z,10.90
2023-11-12T10:21:22.266Z,11.10
2023-11-12T10:24:06.779Z,11.10
2023-11-12T10:26:36.989Z,11.10
2023-11-12T10:29:03.854Z,11.20
2023-11-12T10:31:38.650Z,11.30
2023-11-12T10:34:05.695Z,11.40
2023-11-12T10:36:32.573Z,11.40
2023-11-12T10:39:06.395Z,11.50
2023-11-12T10:41:36.453Z,11.40
2023-11-12T10:44:04.460Z,11.40
2023-11-12T10:46:36.093Z,11.40
2023-11-12T10:49:04.245Z,11.40
2023-11-12T10:51:31.814Z,11.30
2023-11-12T10:54:00.846Z,11.20
2023-11-12T10:56:28.841Z,11.10
2023-11-12T10:58:56.921Z,11.00
2023-11-12T11:01:24.959Z,10.80
2023-11-12T11:03:52.613Z,10.60
2023-11-12T11:06:19.996Z,10.40
2023-11-12T11:08:46.915Z,10.20
2023-11-12T11:11:14.265Z,10.00
2023-11-12T11:13:41.285Z,9.80
2023-11-12T11:16:09.207Z,9.70
2023-11-12T11:18:36.177Z,9.50
2023-11-12T11:21:16.467Z,9.30
2023-11-12T11:23:53.126Z,9.20
2023-11-12T11:26:29.116Z,9.10
2023-11-12T11:29:11.570Z,9.10
2023-11-12T11:31:48.831Z,9.00
2023-11-12T11:34:17.313Z,8.90
2023-11-12T11:37:00.648Z,8.90
2023-11-12T11:39:29.721Z,8.90
2023-11-12T11:41:56.657Z,8.90
2023-11-12T11:44:35.440Z,8.80
2023-11-12T11:47:27.485Z,8.80
2023-11-12T11:49:57.992Z,8.80
2023-11-12T11:52:26.068Z,8.70
2023-11-12T11:54:58.957Z,8.80
2023-11-12T11:57:27.822Z,8.70
2023-11-12T11:59:55.897Z,8.70
2023-11-12T12:02:24.739Z,8.70
2023-11-12T12:04:59.185Z,8.70
2023-11-12T12:07:28.768Z,8.60
2023-11-12T12:09:59.831Z,8.50
2023-11-12T12:12:27.772Z,8.50
2023-11-12T12:14:55.927Z,8.50
2023-11-12T12:17:23.643Z,8.50
2023-11-12T12:19:55.130Z,8.50
2023-11-12T12:22:25.949Z,8.50
2023-11-12T12:24:56.850Z,8.50
2023-11-12T12:27:25.469Z,8.50
2023-11-12T12:29:53.020Z,8.40
2023-11-12T12:32:21.287Z,8.50
2023-11-12T12:34:57.372Z,8.60
2023-11-12T12:37:26.966Z,8.60
2023-11-12T12:40:02.791Z,8.70
2023-11-12T12:42:30.498Z,8.70
2023-11-12T12:45:00.705Z,8.80
2023-11-12T12:47:42.916Z,8.80
2023-11-12T12:50:34.541Z,8.80
2023-11-12T12:53:22.279Z,8.90
2023-11-12T12:55:50.130Z,8.90
2023-11-12T12:58:16.957Z,9.00
2023-11-12T13:00:44.848Z,9.00
2023-11-12T13:03:31.926Z,9.00
2023-11-12T13:05:59.347Z,9.10
2023-11-12T13:08:26.387Z,9.10
2023-11-12T13:10:55.459Z,9.10
2023-11-12T13:13:22.974Z,9.10
2023-11-12T13:15:49.986Z,9.10
2023-11-12T13:18:18.971Z,9.20
2023-11-12T13:20:46.242Z,9.20
2023-11-12T13:23:13.153Z,9.20
2023-11-12T13:25:42.543Z,9.20
2023-11-12T13:28:11.086Z,9.20
2023-11-12T13:30:37.938Z,9.20
2023-11-12T13:33:05.344Z,9.20
2023-11-12T13:35:32.374Z,9.20
2023-11-12T13:37:59.210Z,9.20
2023-11-12T13:40:26.616Z,9.20
2023-11-12T13:42:53.471Z,9.20
2023-11-12T13:45:20.543Z,9.30
2023-11-12T13:47:47.418Z,9.30
2023-11-12T13:50:15.415Z,9.30
2023-11-12T13:52:44.165Z,9.20
2023-11-12T13:55:19.172Z,9.20
2023-11-12T13:57:47.261Z,9.20
2023-11-12T14:00:16.950Z,9.20
2023-11-12T14:02:44.485Z,9.10
2023-11-12T14:05:12.103Z,9.10
2023-11-12T14:07:42.582Z,9.10
2023-11-12T14:10:11.316Z,9.10
2023-11-12T14:12:39.346Z,9.10
2023-11-12T14:15:10.490Z,9.10
2023-11-12T14:17:37.583Z,9.10
2023-11-12T14:20:07.644Z,9.10
2023-11-12T14:22:35.734Z,9.10
2023-11-12T14:25:04.549Z,9.10
2023-11-12T14:27:31.889Z,9.10
2023-11-12T14:29:58.748Z,9.10
2023-11-12T14:32:25.640Z,9.10
2023-11-12T14:34:52.552Z,9.10
2023-11-12T14:37:19.461Z,9.20
2023-11-12T14:39:46.226Z,9.10
2023-11-12T14:42:13.017Z,9.10
2023-11-12T14:44:39.887Z,9.10
2023-11-12T14:47:07.544Z,9.10
2023-11-12T14:49:34.507Z,9.10
2023-11-12T14:52:01.421Z,9.10
2023-11-12T14:54:30.545Z,9.10
2023-11-12T14:56:57.515Z,9.00
2023-11-12T14:59:24.382Z,9.00
2023-11-12T15:01:52.068Z,9.00
2023-11-12T15:04:19.330Z,9.00
2023-11-12T15:06:46.249Z,9.00
2023-11-12T15:09:13.079Z,9.00
2023-11-12T15:11:41.811Z,9.00
2023-11-12T15:14:08.837Z,9.00
2023-11-12T15:16:35.898Z,9.00
2023-11-12T15:19:02.976Z,9.00
2023-11-12T15:21:29.931Z,8.90
2023-11-12T15:23:56.913Z,8.90
2023-11-12T15:26:23.918Z,8.90
2023-11-12T15:28:52.164Z,8.80
2023-11-12T15:31:19.479Z,8.80
2023-11-12T15:33:46.472Z,8.70
2023-11-12T15:36:13.627Z,8.70
2023-11-12T15:38:40.416Z,8.60
2023-11-12T15:41:07.562Z,8.60
2023-11-12T15:43:34.680Z,8.60
2023-11-12T15:46:04.528Z,8.60
2023-11-12T15:48:32.273Z,8.70
2023-11-12T15:50:59.135Z,8.60
2023-11-12T15:53:31.767Z,8.60
2023-11-12T15:56:00.664Z,8.60
2023-11-12T15:58:28.496Z,8.50
2023-11-12T16:00:55.563Z,8.50
2023-11-12T16:03:22.525Z,8.50
2023-11-12T16:05:49.587Z,8.50
2023-11-12T16:08:16.501Z,8.50
2023-11-12T16:10:43.246Z,8.50
2023-11-12T16:13:10.118Z,8.50
2023-11-12T16:15:37.454Z,8.50
2023-11-12T16:18:04.494Z,8.60
2023-11-12T16:20:33.134Z,8.50
2023-11-12T16:23:00.531Z,8.60
2023-11-12T16:25:28.145Z,8.60
2023-11-12T16:27:55.505Z,8.60
2023-11-12T16:30:25.195Z,8.60
2023-11-12T16:32:52.341Z,8.60
2023-11-12T16:35:21.070Z,8.60
2023-11-12T16:37:49.973Z,8.70
2023-11-12T16:40:19.393Z,8.70
2023-11-12T16:42:49.336Z,8.70
2023-11-12T16:45:17.930Z,8.80
2023-11-12T16:47:45.119Z,8.80
2023-11-12T16:50:15.564Z,8.80
2023-11-12T16:52:43.069Z,8.80
2023-11-12T16:55:11.151Z,8.80
2023-11-12T16:57:38.673Z,8.80
2023-11-12T17:00:07.088Z,8.80
2023-11-12T17:02:36.584Z,8.90
2023-11-12T17:05:04.747Z,8.90
2023-11-12T17:07:31.883Z,8.90
2023-11-12T17:09:58.848Z,8.90
2023-11-12T17:12:26.011Z,8.90
2023-11-12T17:14:55.069Z,8.90
2023-11-12T17:17:24.121Z,8.90
2023-11-12T17:19:50.927Z,8.90
2023-11-12T17:22:18.322Z,8.90
2023-11-12T17:24:45.205Z,8.90
2023-11-12T17:27:14.530Z,8.90
2023-11-12T17:29:41.598Z,8.90
2023-11-12T17:32:08.359Z,8.90
2023-11-12T17:34:35.081Z,8.90
2023-11-12T17:37:02.706Z,8.90
2023-11-12T17:39:29.487Z,8.90
2023-11-12T17:41:58.581Z,8.90
2023-11-12T17:44:25.972Z,8.80
2023-11-12T17:46:52.880Z,8.80
2023-11-12T17:49:21.174Z,8.80
2023-11-12T17:51:48.033Z,8.80
2023-11-12T17:54:16.946Z,8.80
2023-11-12T17:56:43.825Z,8.70
2023-11-12T17:59:10.677Z,8.70
2023-11-12T18:01:37.668Z,8.70
2023-11-12T18:04:05.334Z,8.70
2023-11-12T18:06:34.110Z,8.70
2023-11-12T18:09:01.808Z,8.70
2023-11-12T18:11:32.022Z,8.60
2023-11-12T18:14:00.883Z,8.60
2023-11-12T18:16:28.007Z,8.60
2023-11-12T18:18:56.767Z,8.60
2023-11-12T18:21:23.840Z,8.60
2023-11-12T18:23:50.731Z,8.50
2023-11-12T18:26:18.760Z,8.50
2023-11-12T18:28:45.737Z,8.50
2023-11-12T18:31:17.980Z,8.50
2023-11-12T18:33:44.854Z,8.50
2023-11-12T18:36:11.623Z,8.50
2023-11-12T18:38:38.671Z,8.50
2023-11-12T18:41:06.512Z,8.50
2023-11-12T18:43:33.514Z,8.50
2023-11-12T18:46:04.648Z,8.50
2023-11-12T18:48:31.622Z,8.50
2023-11-12T18:50:58.531Z,8.50
2023-11-12T18:53:25.636Z,8.50
2023-11-12T18:55:52.435Z,8.40
2023-11-12T18:58:19.876Z,8.40
2023-11-12T19:00:46.856Z,8.30
2023-11-12T19:03:13.901Z,8.30
2023-11-12T19:05:40.747Z,8.30
2023-11-12T19:08:10.479Z,8.30
2023-11-12T19:10:38.414Z,8.20
2023-11-12T19:13:05.356Z,8.20
2023-11-12T19:15:32.346Z,8.20
2023-11-12T19:17:59.230Z,8.10
2023-11-12T19:20:26.334Z,8.20
2023-11-12T19:22:54.637Z,8.20
2023-11-12T19:25:21.521Z,8.10
2023-11-12T19:27:48.445Z,8.10
2023-11-12T19:30:16.761Z,8.10
2023-11-12T19:32:45.388Z,8.10
2023-11-12T19:35:14.069Z,8.10
2023-11-12T19:37:41.184Z,8.20
2023-11-12T19:40:09.513Z,8.20
2023-11-12T19:42:36.834Z,8.10
2023-11-12T19:45:06.758Z,8.20
2023-11-12T19:47:34.209Z,8.10
2023-11-12T19:50:01.301Z,8.20
2023-11-12T19:52:29.596Z,8.20
2023-11-12T19:55:16.200Z,8.10
2023-11-12T19:57:43.151Z,8.00
2023-11-12T20:00:11.469Z,8.00
2023-11-12T20:02:41.822Z,8.00
2023-11-12T20:05:09.052Z,8.00
2023-11-12T20:07:36.000Z,7.90
2023-11-12T20:10:03.521Z,8.00
2023-11-12T20:12:30.774Z,8.00
2023-11-12T20:14:57.569Z,8.00
2023-11-12T20:17:24.358Z,7.90
2023-11-12T20:19:51.174Z,7.90
2023-11-12T20:22:18.840Z,7.90
2023-11-12T20:24:46.690Z,7.80
2023-11-12T20:27:16.441Z,7.80
2023-11-12T20:29:44.256Z,7.80
2023-11-12T20:32:16.244Z,7.70
2023-11-12T20:34:45.587Z,7.70
2023-11-12T20:37:16.871Z,7.60
2023-11-12T20:39:44.247Z,7.70
2023-11-12T20:42:11.037Z,7.60
2023-11-12T20:44:41.797Z,7.60
2023-11-12T20:47:12.314Z,7.60
2023-11-12T20:49:40.153Z,7.50
2023-11-12T20:52:09.267Z,7.50
2023-11-12T20:54:38.452Z,7.50
2023-11-12T20:57:07.518Z,7.50
2023-11-12T20:59:34.603Z,7.40
2023-11-12T21:02:10.113Z,7.40
2023-11-12T21:04:45.519Z,7.30
2023-11-12T21:07:13.936Z,7.30
2023-11-12T21:09:41.076Z,7.30
2023-11-12T21:12:09.197Z,7.20
2023-11-12T21:14:36.120Z,7.20
2023-11-12T21:17:02.984Z,7.20
2023-11-12T21:19:29.840Z,7.20
2023-11-12T21:21:57.334Z,7.20
2023-11-12T21:24:24.242Z,7.20
2023-11-12T21:26:51.491Z,7.20
2023-11-12T21:29:20.478Z,7.10
2023-11-12T21:31:48.394Z,7.10
2023-11-12T21:34:15.540Z,7.10
2023-11-12T21:36:42.400Z,7.00
2023-11-12T21:39:11.914Z,7.10
2023-11-12T21:41:39.463Z,7.00
2023-11-12T21:44:08.744Z,7.00
2023-11-12T21:46:35.871Z,7.00
2023-11-12T21:49:02.791Z,7.00
2023-11-12T21:51:31.771Z,7.00
2023-11-12T21:53:58.582Z,6.90
2023-11-12T21:56:25.345Z,6.90
2023-11-12T21:58:52.136Z,6.90
2023-11-12T22:01:19.992Z,6.90
2023-11-12T22:03:47.040Z,6.90
2023-11-12T22:06:14.032Z,6.90
2023-11-12T22:08:40.840Z,6.90
2023-11-12T22:11:07.561Z,6.90
2023-11-12T22:13:34.303Z,6.90
2023-11-12T22:16:01.510Z,6.80
2023-11-12T22:18:29.320Z,6.80
2023-11-12T22:20:57.190Z,6.80
2023-11-12T22:23:24.014Z,6.90
2023-11-12T22:25:51.037Z,6.80
2023-11-12T22:28:18.064Z,6.90
2023-11-12T22:30:46.563Z,6.80
2023-11-12T22:33:13.496Z,6.90
2023-11-12T22:35:40.364Z,6.80
2023-11-12T22:38:08.146Z,6.80
2023-11-12T22:40:35.140Z,6.80
2023-11-12T22:43:03.014Z,6.90
2023-11-12T22:45:29.829Z,6.90
2023-11-12T22:47:57.444Z,6.90
2023-11-12T22:50:25.984Z,6.90
2023-11-12T22:52:53.494Z,7.00
2023-11-12T22:55:20.404Z,7.00
2023-11-12T22:57:47.340Z,6.90
2023-11-12T23:00:40.623Z,7.00
2023-11-12T23:03:11.444Z,7.00
2023-11-12T23:05:38.318Z,7.00
2023-11-12T23:08:07.488Z,7.00
2023-11-12T23:10:38.635Z,6.90
2023-11-12T23:13:06.450Z,6.90
2023-11-12T23:15:34.701Z,6.90
2023-11-12T23:18:01.575Z,6.90
2023-11-12T23:20:28.505Z,6.80
2023-11-12T23:22:55.247Z,6.80
2023-11-12T23:25:22.048Z,6.80
2023-11-12T23:27:48.953Z,6.80
2023-11-12T23:30:15.882Z,6.80
2023-11-12T23:32:46.022Z,6.90
2023-11-12T23:35:13.112Z,6.80
2023-11-12T23:37:39.989Z,6.90
2023-11-12T23:40:08.307Z,6.90
2023-11-12T23:42:35.296Z,6.90
2023-11-12T23:45:02.109Z,6.90
2023-11-12T23:47:29.683Z,6.90
2023-11-12T23:49:56.540Z,7.00
2023-11-12T23:52:23.367Z,6.90
2023-11-12T23:54:50.214Z,7.00
2023-11-12T23:57:17.028Z,6.90
2023-11-12T23:59:44.129Z,6.90
